createdAt,value
2017-09-29T00:02:47.141Z,8.70
2017-09-29T00:08:07.078Z,8.73
2017-09-29T00:13:12.079Z,9.47
2017-09-29T00:18:13.989Z,8.67
2017-09-29T00:23:15.824Z,9.37
2017-09-29T00:28:18.327Z,9.20
2017-09-29T00:33:20.256Z,10.63
2017-09-29T00:38:22.136Z,11.10
2017-09-29T00:43:24.008Z,12.37
2017-09-29T00:48:25.936Z,11.53
2017-09-29T00:53:27.747Z,11.63
2017-09-29T00:58:29.612Z,11.10
2017-09-29T01:03:31.490Z,12.00
2017-09-29T01:08:33.401Z,10.67
2017-09-29T01:13:35.232Z,10.43
2017-09-29T01:18:37.968Z,10.47
2017-09-29T01:23:40.871Z,10.50
2017-09-29T01:28:42.763Z,9.93
2017-09-29T01:33:44.640Z,11.23
2017-09-29T01:38:46.496Z,10.87
2017-09-29T01:43:48.365Z,9.50
2017-09-29T01:48:50.256Z,9.40
2017-09-29T01:53:52.139Z,10.40
2017-09-29T01:58:54.016Z,10.50
2017-09-29T02:03:55.907Z,9.60
2017-09-29T02:08:57.768Z,11.03
2017-09-29T02:13:59.765Z,10.30
2017-09-29T02:19:01.628Z,12.30
2017-09-29T02:24:07.118Z,11.40
2017-09-29T02:29:09.992Z,11.10
2017-09-29T02:34:12.655Z,10.57
2017-09-29T02:39:30.811Z,11.27
2017-09-29T02:44:51.092Z,11.23
2017-09-29T02:50:11.338Z,11.83
2017-09-29T02:55:15.916Z,12.30
2017-09-29T03:00:20.497Z,12.57
2017-09-29T03:05:41.428Z,12.07
2017-09-29T03:11:01.226Z,11.33
2017-09-29T03:16:21.337Z,13.20
2017-09-29T03:21:26.887Z,13.40
2017-09-29T03:26:28.756Z,12.40
2017-09-29T03:31:30.663Z,12.23
2017-09-29T03:36:34.498Z,11.40
2017-09-29T03:41:36.394Z,11.50
2017-09-29T03:46:38.184Z,11.20
2017-09-29T03:51:44.673Z,11.57
2017-09-29T03:56:49.266Z,10.27
2017-09-29T04:01:54.923Z,11.23
2017-09-29T04:06:56.808Z,12.87
2017-09-29T04:11:59.860Z,12.60
2017-09-29T04:17:01.824Z,11.77
2017-09-29T04:22:03.682Z,11.70
2017-09-29T04:27:05.549Z,12.70
2017-09-29T04:32:07.402Z,13.50
2017-09-29T04:37:09.276Z,13.40
2017-09-29T04:42:11.156Z,13.43
2017-09-29T04:47:13.031Z,12.77
2017-09-29T04:52:15.833Z,14.30
2017-09-29T04:57:18.631Z,13.27
2017-09-29T05:02:20.356Z,12.97
2017-09-29T05:07:25.712Z,12.53
2017-09-29T05:12:27.420Z,12.30
2017-09-29T05:17:29.188Z,13.40
2017-09-29T05:22:30.935Z,12.60
2017-09-29T05:27:32.626Z,12.50
2017-09-29T05:32:34.431Z,13.10
2017-09-29T05:37:36.914Z,13.17
2017-09-29T05:42:39.382Z,13.90
2017-09-29T05:47:41.091Z,23.20
2017-09-29T05:52:42.816Z,14.43
2017-09-29T05:57:44.540Z,13.70
2017-09-29T06:02:46.263Z,14.37
2017-09-29T06:07:47.967Z,14.60
2017-09-29T06:12:50.069Z,14.60
2017-09-29T06:17:51.816Z,13.57
2017-09-29T06:22:53.592Z,13.80
2017-09-29T06:27:56.152Z,13.57
2017-09-29T06:32:57.873Z,13.90
2017-09-29T06:37:59.523Z,13.57
2017-09-29T06:43:01.235Z,13.23
2017-09-29T06:48:06.377Z,11.90
2017-09-29T06:53:08.087Z,11.77
2017-09-29T06:58:09.783Z,11.80
2017-09-29T07:03:14.835Z,11.13
2017-09-29T07:08:17.211Z,10.67
2017-09-29T07:13:18.923Z,10.20
2017-09-29T07:18:21.377Z,10.10
2017-09-29T07:23:23.103Z,9.67
2017-09-29T07:28:28.429Z,9.93
2017-09-29T07:33:31.312Z,11.50
2017-09-29T07:38:33.076Z,11.77
2017-09-29T07:43:34.792Z,13.73
2017-09-29T07:48:36.533Z,12.77
2017-09-29T07:53:38.260Z,14.90
2017-09-29T07:58:40.033Z,15.50
2017-09-29T08:03:42.483Z,15.00
2017-09-29T08:08:44.208Z,14.87
2017-09-29T08:13:46.091Z,12.90
2017-09-29T08:18:47.800Z,14.00
2017-09-29T08:23:49.528Z,13.00
2017-09-29T08:28:54.095Z,13.10
2017-09-29T08:33:57.649Z,13.37
2017-09-29T08:38:59.333Z,12.47
2017-09-29T08:44:01.073Z,13.70
2017-09-29T08:49:02.839Z,13.00
2017-09-29T08:54:04.551Z,13.50
2017-09-29T08:59:06.284Z,13.77
2017-09-29T09:04:07.983Z,13.40
2017-09-29T09:09:09.721Z,12.50
2017-09-29T09:14:11.597Z,13.13
2017-09-29T09:19:13.324Z,12.20
2017-09-29T09:24:15.039Z,13.40
2017-09-29T09:29:16.760Z,13.47
2017-09-29T09:34:18.531Z,11.37
2017-09-29T09:39:20.269Z,12.00
2017-09-29T09:44:22.009Z,11.90
2017-09-29T09:49:23.783Z,10.30
2017-09-29T09:54:25.539Z,10.57
2017-09-29T09:59:27.280Z,11.33
2017-09-29T10:04:29.025Z,9.80
2017-09-29T10:09:30.752Z,9.40
2017-09-29T10:14:33.824Z,8.63
2017-09-29T10:19:35.536Z,8.13
2017-09-29T10:24:37.348Z,8.83
2017-09-29T10:29:39.803Z,7.50
2017-09-29T10:34:41.568Z,7.50
2017-09-29T10:39:43.280Z,7.43
2017-09-29T10:44:44.988Z,6.40
2017-09-29T10:49:46.712Z,6.00
2017-09-29T10:54:48.463Z,7.47
2017-09-29T10:59:50.169Z,7.37
2017-09-29T11:04:51.909Z,7.17
2017-09-29T11:09:53.632Z,7.07
2017-09-29T11:14:55.361Z,5.50
2017-09-29T11:19:57.072Z,5.10
2017-09-29T11:24:58.869Z,5.23
2017-09-29T11:30:00.593Z,5.77
2017-09-29T11:35:02.345Z,6.00
2017-09-29T11:40:04.087Z,5.90
2017-09-29T11:45:05.812Z,5.30
2017-09-29T11:50:07.536Z,5.07
2017-09-29T11:55:10.003Z,4.80
2017-09-29T12:00:12.483Z,4.40
2017-09-29T12:05:14.420Z,3.90
2017-09-29T12:10:16.189Z,3.90
2017-09-29T12:15:17.922Z,4.60
2017-09-29T12:20:19.584Z,3.90
2017-09-29T12:25:21.291Z,3.43
2017-09-29T12:30:23.804Z,3.43
2017-09-29T12:35:25.530Z,3.77
2017-09-29T12:40:27.209Z,3.33
2017-09-29T12:45:28.935Z,3.50
2017-09-29T12:50:31.470Z,3.97
2017-09-29T12:55:33.191Z,3.90
2017-09-29T13:00:35.323Z,3.87
2017-09-29T13:05:37.049Z,4.43
2017-09-29T13:10:38.769Z,4.50
2017-09-29T13:15:42.027Z,3.47
2017-09-29T13:20:43.974Z,3.63
2017-09-29T13:25:45.733Z,3.73
2017-09-29T13:30:47.443Z,3.70
2017-09-29T13:35:49.337Z,3.30
2017-09-29T13:40:51.257Z,3.50
2017-09-29T13:45:53.397Z,3.87
2017-09-29T13:50:55.107Z,3.80
2017-09-29T13:55:56.807Z,3.53
2017-09-29T14:00:58.668Z,3.67
2017-09-29T14:06:00.382Z,3.43
2017-09-29T14:11:02.120Z,3.70
2017-09-29T14:16:03.865Z,3.43
2017-09-29T14:21:05.583Z,3.60
2017-09-29T14:26:08.092Z,4.10
2017-09-29T14:31:09.813Z,3.80
2017-09-29T14:36:11.612Z,3.60
2017-09-29T14:41:13.356Z,3.67
2017-09-29T14:46:15.068Z,3.40
2017-09-29T14:51:16.748Z,3.30
2017-09-29T14:56:19.066Z,3.63
2017-09-29T15:01:20.893Z,4.10
2017-09-29T15:06:23.485Z,4.30
2017-09-29T15:11:25.365Z,4.10
2017-09-29T15:16:27.630Z,3.57
2017-09-29T15:21:29.504Z,3.20
2017-09-29T15:26:31.893Z,3.63
2017-09-29T15:31:33.693Z,3.50
2017-09-29T15:36:35.571Z,4.30
2017-09-29T15:41:37.831Z,3.80
2017-09-29T15:46:39.703Z,3.63
2017-09-29T15:51:41.612Z,3.80
2017-09-29T15:56:44.100Z,4.07
2017-09-29T16:01:46.127Z,4.33
2017-09-29T16:06:49.026Z,4.30
2017-09-29T16:11:50.772Z,4.30
2017-09-29T16:16:52.510Z,4.00
2017-09-29T16:21:54.224Z,4.40
2017-09-29T16:26:58.101Z,4.47
2017-09-29T16:31:59.818Z,4.30
2017-09-29T16:37:01.532Z,4.60
2017-09-29T16:42:03.206Z,4.70
2017-09-29T16:47:05.577Z,4.30
2017-09-29T16:52:08.288Z,4.77
2017-09-29T16:57:10.016Z,4.60
2017-09-29T17:02:11.746Z,4.90
2017-09-29T17:07:13.501Z,5.23
2017-09-29T17:12:15.201Z,5.80
2017-09-29T17:17:16.914Z,6.13
2017-09-29T17:22:18.964Z,5.47
2017-09-29T17:27:20.672Z,5.60
2017-09-29T17:32:22.384Z,5.33
2017-09-29T17:37:24.108Z,5.97
2017-09-29T17:42:25.914Z,5.80
2017-09-29T17:47:27.636Z,6.63
2017-09-29T17:52:29.352Z,6.50
2017-09-29T17:57:31.082Z,7.17
2017-09-29T18:02:34.909Z,6.33
2017-09-29T18:07:49.907Z,5.80
2017-09-29T18:18:46.069Z,5.30
2017-09-29T18:29:36.143Z,6.07
2017-09-29T18:34:40.317Z,5.90
2017-09-29T18:39:42.188Z,5.47
2017-09-29T18:44:47.103Z,6.00
2017-09-29T18:49:48.801Z,5.50
2017-09-29T18:54:51.408Z,6.30
2017-09-29T18:59:54.181Z,6.80
2017-09-29T19:04:56.184Z,6.47
2017-09-29T19:09:58.159Z,5.80
2017-09-29T19:15:00.982Z,6.17
2017-09-29T19:20:03.810Z,6.53
2017-09-29T19:25:05.541Z,5.83
2017-09-29T19:30:07.417Z,7.20
2017-09-29T19:35:09.936Z,6.20
2017-09-29T19:40:12.259Z,8.70
2017-09-29T19:45:14.692Z,5.97
2017-09-29T19:50:17.077Z,6.10
2017-09-29T19:55:18.849Z,5.47
2017-09-29T20:00:21.472Z,5.93
2017-09-29T20:05:27.721Z,5.60
2017-09-29T20:10:29.711Z,5.50
2017-09-29T20:15:31.497Z,5.40
2017-09-29T20:20:33.372Z,6.20
2017-09-29T20:25:35.233Z,5.30
2017-09-29T20:30:37.772Z,5.10
2017-09-29T20:35:40.528Z,5.40
2017-09-29T20:40:42.408Z,5.17
2017-09-29T20:45:44.304Z,4.50
2017-09-29T20:50:46.112Z,6.23
2017-09-29T20:55:47.832Z,6.53
2017-09-29T21:00:49.724Z,5.80
2017-09-29T21:05:51.589Z,6.70
2017-09-29T21:10:53.530Z,6.47
2017-09-29T21:15:55.561Z,6.73
2017-09-29T21:20:57.429Z,6.20
2017-09-29T21:25:59.213Z,6.70
2017-09-29T21:31:01.080Z,6.53
2017-09-29T21:36:02.967Z,6.90
2017-09-29T21:41:04.852Z,7.47
2017-09-29T21:46:06.720Z,7.27
2017-09-29T21:51:08.584Z,6.57
2017-09-29T21:56:10.465Z,6.37
2017-09-29T22:01:12.249Z,6.60
2017-09-29T22:06:14.133Z,7.37
2017-09-29T22:11:16.000Z,8.10
2017-09-29T22:16:18.252Z,6.97
2017-09-29T22:21:24.251Z,6.67
2017-09-29T22:26:26.085Z,7.07
2017-09-29T22:31:28.828Z,7.23
2017-09-29T22:36:31.528Z,7.60
2017-09-29T22:41:33.416Z,8.27
2017-09-29T22:46:35.332Z,7.57
2017-09-29T22:51:37.156Z,8.30
2017-09-29T22:56:39.104Z,7.43
2017-09-29T23:01:41.941Z,7.90
2017-09-29T23:06:43.816Z,8.27
2017-09-29T23:11:45.688Z,9.87
2017-09-29T23:16:48.188Z,10.23
2017-09-29T23:21:50.077Z,8.90
2017-09-29T23:26:51.932Z,8.10
2017-09-29T23:31:54.433Z,7.97
2017-09-29T23:36:57.944Z,9.27
2017-09-29T23:42:00.441Z,6.97
2017-09-29T23:47:02.317Z,7.13
2017-09-29T23:52:04.812Z,7.33
2017-09-29T23:57:06.689Z,7.60
